createdAt,value
2022-08-22T00:02:12.933Z,65.08
2022-08-22T00:02:57.280Z,64.63
2022-08-22T00:02:59.713Z,65.38
2022-08-22T00:03:02.258Z,64.92
2022-08-22T00:03:12.013Z,65.07
2022-08-22T00:04:44.911Z,65.57
2022-08-22T00:07:21.898Z,65.69
2022-08-22T00:10:01.610Z,65.67
2022-08-22T00:12:38.671Z,65.61
2022-08-22T00:15:13.231Z,65.84
2022-08-22T00:18:10.346Z,66.07
2022-08-22T00:20:45.522Z,65.84
2022-08-22T00:23:19.464Z,65.99
2022-08-22T00:25:55.784Z,65.68
2022-08-22T00:28:29.246Z,66.06
2022-08-22T00:31:09.089Z,65.26
2022-08-22T00:33:46.679Z,65.53
2022-08-22T00:36:23.910Z,65.39
2022-08-22T00:39:09.156Z,65.88
2022-08-22T00:42:10.095Z,65.98
2022-08-22T00:45:13.770Z,65.72
2022-08-22T00:47:57.888Z,65.49
2022-08-22T00:50:46.532Z,65.77
2022-08-22T00:53:31.661Z,65.46
2022-08-22T00:56:26.237Z,65.86
2022-08-22T00:59:22.817Z,65.91
2022-08-22T01:01:56.257Z,65.95
2022-08-22T01:04:51.006Z,65.93
2022-08-22T01:07:39.281Z,66.13
2022-08-22T01:10:24.306Z,65.62
2022-08-22T01:13:18.188Z,65.93
2022-08-22T01:15:51.456Z,66.13
2022-08-22T01:18:50.357Z,66.25
2022-08-22T01:21:51.521Z,66.19
2022-08-22T01:25:17.036Z,66.39
2022-08-22T01:28:19.742Z,65.85
2022-08-22T01:31:33.353Z,65.93
2022-08-22T01:34:30.245Z,66.17
2022-08-22T01:37:43.598Z,66.39
2022-08-22T01:40:53.514Z,66.31
2022-08-22T01:43:58.555Z,66.39
2022-08-22T01:46:36.603Z,66.92
2022-08-22T01:49:13.015Z,66.11
2022-08-22T01:51:48.879Z,66.70
2022-08-22T01:54:27.671Z,66.48
2022-08-22T01:57:01.740Z,66.66
2022-08-22T01:59:34.797Z,66.35
2022-08-22T02:02:36.663Z,66.92
2022-08-22T02:05:10.504Z,66.26
2022-08-22T02:07:49.187Z,66.53
2022-08-22T02:10:23.737Z,66.87
2022-08-22T02:13:03.549Z,67.15
2022-08-22T02:15:45.085Z,66.84
2022-08-22T02:18:32.139Z,66.66
2022-08-22T02:21:06.109Z,66.96
2022-08-22T02:23:47.020Z,66.64
2022-08-22T02:26:20.414Z,66.53
2022-08-22T02:28:56.711Z,66.51
2022-08-22T02:31:37.783Z,66.77
2022-08-22T02:34:21.445Z,67.11
2022-08-22T02:36:58.192Z,67.72
2022-08-22T02:39:38.624Z,67.62
2022-08-22T02:42:25.951Z,67.04
2022-08-22T02:45:04.112Z,66.51
2022-08-22T02:47:41.338Z,67.39
2022-08-22T02:50:19.742Z,67.13
2022-08-22T02:52:59.502Z,67.43
2022-08-22T02:55:43.075Z,67.09
2022-08-22T02:58:20.540Z,67.36
2022-08-22T03:00:51.483Z,67.34
2022-08-22T03:03:24.666Z,66.86
2022-08-22T03:06:01.340Z,67.15
2022-08-22T03:08:32.996Z,67.26
2022-08-22T03:11:19.720Z,67.41
2022-08-22T03:14:04.457Z,67.34
2022-08-22T03:16:39.665Z,67.15
2022-08-22T03:19:14.866Z,67.24
2022-08-22T03:21:58.090Z,67.57
2022-08-22T03:24:38.520Z,66.96
2022-08-22T03:27:32.355Z,67.46
2022-08-22T03:30:06.947Z,67.08
2022-08-22T03:32:54.565Z,67.28
2022-08-22T03:35:32.356Z,67.06
2022-08-22T03:38:18.048Z,67.19
2022-08-22T03:40:54.543Z,67.28
2022-08-22T03:43:45.313Z,67.27
2022-08-22T03:46:43.328Z,67.42
2022-08-22T03:49:40.747Z,67.09
2022-08-22T03:52:31.739Z,67.54
2022-08-22T03:55:21.932Z,67.43
2022-08-22T03:58:27.747Z,67.15
2022-08-22T04:01:37.801Z,67.13
2022-08-22T04:04:33.966Z,67.17
2022-08-22T04:07:35.340Z,67.21
2022-08-22T04:10:44.772Z,67.65
2022-08-22T04:13:35.488Z,67.20
2022-08-22T04:16:39.222Z,67.22
2022-08-22T04:19:28.135Z,67.24
2022-08-22T04:22:22.533Z,67.63
2022-08-22T04:24:57.088Z,67.11
2022-08-22T04:27:30.241Z,67.62
2022-08-22T04:30:03.762Z,67.41
2022-08-22T04:32:38.580Z,67.36
2022-08-22T04:35:11.222Z,67.30
2022-08-22T04:37:46.472Z,67.17
2022-08-22T04:40:24.651Z,67.26
2022-08-22T04:42:58.205Z,67.58
2022-08-22T04:45:32.911Z,67.28
2022-08-22T04:48:08.787Z,67.44
2022-08-22T04:50:43.195Z,67.57
2022-08-22T04:53:23.223Z,67.08
2022-08-22T04:56:04.145Z,67.24
2022-08-22T04:58:44.897Z,67.33
2022-08-22T05:01:17.828Z,67.66
2022-08-22T05:03:54.850Z,66.95
2022-08-22T05:06:26.484Z,66.67
2022-08-22T05:08:54.987Z,66.17
2022-08-22T05:11:24.671Z,66.60
2022-08-22T05:13:56.869Z,67.05
2022-08-22T05:16:29.181Z,67.42
2022-08-22T05:19:04.154Z,66.72
2022-08-22T05:21:34.949Z,66.82
2022-08-22T05:24:07.100Z,66.32
2022-08-22T05:26:38.894Z,66.69
2022-08-22T05:29:10.454Z,66.65
2022-08-22T05:31:42.678Z,66.73
2022-08-22T05:34:16.395Z,65.89
2022-08-22T05:36:47.604Z,65.15
2022-08-22T05:39:19.698Z,65.13
2022-08-22T05:41:48.261Z,60.13
2022-08-22T05:44:20.674Z,61.92
2022-08-22T05:46:52.673Z,59.73
2022-08-22T05:49:30.202Z,64.72
2022-08-22T05:52:09.239Z,66.21
2022-08-22T05:54:49.973Z,66.94
2022-08-22T05:57:27.882Z,67.49
2022-08-22T06:00:01.944Z,67.38
2022-08-22T06:02:46.565Z,67.87
2022-08-22T06:05:24.511Z,67.97
2022-08-22T06:07:56.203Z,68.63
2022-08-22T06:10:28.997Z,67.91
2022-08-22T06:13:02.013Z,68.52
2022-08-22T06:15:38.604Z,68.46
2022-08-22T06:18:10.398Z,70.85
2022-08-22T06:20:43.443Z,70.35
2022-08-22T06:23:16.458Z,70.19
2022-08-22T06:25:47.629Z,71.22
2022-08-22T06:28:22.779Z,71.00
2022-08-22T06:30:54.100Z,70.59
2022-08-22T06:33:27.490Z,71.38
2022-08-22T06:36:20.644Z,71.68
2022-08-22T06:38:58.424Z,71.39
2022-08-22T06:41:30.479Z,71.36
2022-08-22T06:43:59.572Z,71.65
2022-08-22T06:46:29.787Z,73.20
2022-08-22T06:49:00.420Z,72.41
2022-08-22T06:51:30.802Z,72.48
2022-08-22T06:54:03.096Z,72.57
2022-08-22T06:56:37.430Z,71.79
2022-08-22T06:59:09.868Z,71.26
2022-08-22T07:01:53.339Z,71.72
2022-08-22T07:04:26.540Z,72.24
2022-08-22T07:06:58.361Z,71.92
2022-08-22T07:09:29.179Z,71.28
2022-08-22T07:12:00.725Z,71.71
2022-08-22T07:14:32.057Z,72.04
2022-08-22T07:17:02.013Z,72.71
2022-08-22T07:19:34.701Z,71.28
2022-08-22T07:22:14.569Z,71.05
2022-08-22T07:24:51.943Z,71.09
2022-08-22T07:27:32.065Z,70.93
2022-08-22T07:30:10.262Z,71.08
2022-08-22T07:32:48.141Z,72.12
2022-08-22T07:35:19.043Z,70.53
2022-08-22T07:37:59.220Z,70.98
2022-08-22T07:40:33.636Z,70.73
2022-08-22T07:43:16.590Z,70.65
2022-08-22T07:45:51.474Z,71.26
2022-08-22T07:48:27.025Z,70.27
2022-08-22T07:51:01.986Z,70.22
2022-08-22T07:53:39.460Z,69.24
2022-08-22T07:56:10.681Z,68.82
2022-08-22T07:58:42.016Z,68.65
2022-08-22T08:01:12.347Z,67.62
2022-08-22T08:03:40.400Z,65.68
2022-08-22T08:06:10.504Z,66.04
2022-08-22T08:08:42.518Z,67.00
2022-08-22T08:11:12.817Z,66.33
2022-08-22T08:13:44.864Z,66.81
2022-08-22T08:16:24.626Z,65.40
2022-08-22T08:18:56.674Z,64.69
2022-08-22T08:21:31.416Z,64.35
2022-08-22T08:24:02.392Z,64.50
2022-08-22T08:26:34.898Z,63.27
2022-08-22T08:29:03.911Z,63.66
2022-08-22T08:31:35.545Z,62.97
2022-08-22T08:34:06.918Z,61.72
2022-08-22T08:36:40.493Z,60.82
2022-08-22T08:39:20.491Z,61.53
2022-08-22T08:42:23.953Z,61.48
2022-08-22T08:45:12.696Z,61.74
2022-08-22T08:47:56.629Z,60.99
2022-08-22T08:50:46.933Z,60.00
2022-08-22T08:53:43.284Z,60.16
2022-08-22T08:56:20.165Z,60.24
2022-08-22T08:58:55.695Z,58.70
2022-08-22T09:01:42.244Z,58.90
2022-08-22T09:04:53.724Z,59.38
2022-08-22T09:08:07.456Z,57.35
2022-08-22T09:11:09.577Z,56.77
2022-08-22T09:13:56.057Z,56.88
2022-08-22T09:19:57.817Z,55.53
2022-08-22T09:22:50.098Z,55.77
2022-08-22T09:25:25.037Z,54.78
2022-08-22T09:27:59.557Z,54.67
2022-08-22T09:30:54.174Z,54.52
2022-08-22T09:33:54.614Z,54.02
2022-08-22T09:36:26.076Z,53.84
2022-08-22T09:38:58.761Z,53.43
2022-08-22T09:41:36.947Z,52.27
2022-08-22T09:44:16.554Z,52.32
2022-08-22T09:46:56.276Z,52.62
2022-08-22T09:49:32.786Z,52.31
2022-08-22T09:52:14.498Z,51.65
2022-08-22T09:54:49.253Z,52.31
2022-08-22T09:57:24.164Z,52.22
2022-08-22T10:00:13.901Z,48.49
2022-08-22T10:02:51.547Z,49.07
2022-08-22T10:05:41.207Z,46.91
2022-08-22T10:08:37.763Z,47.74
2022-08-22T10:11:19.518Z,47.76
2022-08-22T10:13:57.427Z,48.15
2022-08-22T10:16:43.844Z,48.63
2022-08-22T10:19:18.987Z,47.27
2022-08-22T10:22:14.500Z,49.02
2022-08-22T10:24:49.029Z,49.52
2022-08-22T10:27:22.938Z,49.63
2022-08-22T10:30:08.041Z,50.10
2022-08-22T10:32:40.984Z,50.30
2022-08-22T10:35:21.366Z,49.65
2022-08-22T10:37:57.739Z,49.98
2022-08-22T10:40:30.358Z,50.55
2022-08-22T10:43:03.786Z,48.92
2022-08-22T10:45:37.048Z,49.33
2022-08-22T10:48:44.410Z,49.88
2022-08-22T10:51:24.037Z,49.68
2022-08-22T10:54:19.767Z,49.08
2022-08-22T10:56:55.484Z,50.46
2022-08-22T10:59:41.136Z,50.11
2022-08-22T11:02:24.276Z,50.32
2022-08-22T11:05:14.834Z,49.84
2022-08-22T11:07:50.240Z,49.44
2022-08-22T11:10:28.433Z,49.75
2022-08-22T11:13:11.557Z,49.52
2022-08-22T11:15:59.052Z,49.74
2022-08-22T11:18:39.355Z,48.56
2022-08-22T11:21:17.070Z,49.60
2022-08-22T11:24:00.664Z,49.58
2022-08-22T11:26:46.869Z,49.13
2022-08-22T11:29:30.227Z,48.59
2022-08-22T11:32:06.150Z,48.20
2022-08-22T11:34:50.964Z,48.48
2022-08-22T11:37:43.664Z,46.82
2022-08-22T11:40:24.787Z,45.44
2022-08-22T11:43:00.678Z,45.93
2022-08-22T11:45:37.743Z,46.29
2022-08-22T11:48:17.035Z,47.93
2022-08-22T11:50:49.806Z,47.94
2022-08-22T11:53:34.347Z,47.80
2022-08-22T11:56:17.114Z,45.82
2022-08-22T11:58:55.441Z,48.40
2022-08-22T12:01:34.508Z,47.32
2022-08-22T12:04:10.181Z,46.79
2022-08-22T12:06:55.308Z,47.54
2022-08-22T12:09:38.583Z,48.46
2022-08-22T12:12:20.091Z,48.25
2022-08-22T12:14:56.999Z,49.80
2022-08-22T12:17:55.142Z,48.41
2022-08-22T12:20:46.133Z,46.93
2022-08-22T12:23:50.308Z,46.20
2022-08-22T12:26:28.992Z,45.15
2022-08-22T12:29:15.444Z,44.98
2022-08-22T12:32:18.032Z,45.55
2022-08-22T12:35:14.049Z,45.39
2022-08-22T12:37:52.842Z,45.81
2022-08-22T12:40:36.590Z,42.96
2022-08-22T12:43:32.725Z,44.48
2022-08-22T12:46:18.006Z,43.05
2022-08-22T12:49:00.636Z,45.01
2022-08-22T12:51:44.915Z,45.58
2022-08-22T12:54:35.285Z,44.68
2022-08-22T12:57:23.286Z,45.20
2022-08-22T13:02:53.500Z,44.45
2022-08-22T13:05:25.754Z,43.66
2022-08-22T13:08:01.192Z,43.63
2022-08-22T13:10:38.985Z,44.12
2022-08-22T13:13:12.340Z,43.81
2022-08-22T13:15:45.916Z,44.37
2022-08-22T13:18:30.240Z,43.20
2022-08-22T13:21:02.346Z,43.78
2022-08-22T13:23:34.372Z,43.52
2022-08-22T13:26:16.413Z,43.98
2022-08-22T13:29:24.478Z,43.99
2022-08-22T13:31:55.288Z,43.85
2022-08-22T13:34:39.694Z,43.70
2022-08-22T13:37:12.827Z,43.71
2022-08-22T13:39:45.053Z,43.70
2022-08-22T13:42:27.779Z,43.52
2022-08-22T13:45:04.340Z,42.31
2022-08-22T13:47:39.654Z,43.25
2022-08-22T13:50:14.508Z,41.83
2022-08-22T13:52:52.523Z,42.51
2022-08-22T13:55:29.661Z,42.53
2022-08-22T13:58:02.748Z,41.01
2022-08-22T14:01:13.582Z,39.79
2022-08-22T14:03:48.676Z,41.17
2022-08-22T14:06:37.360Z,41.38
2022-08-22T14:09:14.999Z,41.74
2022-08-22T14:11:48.947Z,40.58
2022-08-22T14:14:25.080Z,41.35
2022-08-22T14:16:56.131Z,41.08
2022-08-22T14:19:28.709Z,41.01
2022-08-22T14:22:01.843Z,41.66
2022-08-22T14:24:34.365Z,41.51
2022-08-22T14:27:15.893Z,41.04
2022-08-22T14:29:50.417Z,42.73
2022-08-22T14:32:36.242Z,41.82
2022-08-22T14:35:23.472Z,41.96
2022-08-22T14:38:27.358Z,42.14
2022-08-22T14:41:03.345Z,41.23
2022-08-22T14:43:48.399Z,41.86
2022-08-22T14:46:26.640Z,41.56
2022-08-22T14:49:24.903Z,42.04
2022-08-22T14:52:00.481Z,41.68
2022-08-22T14:54:31.983Z,41.61
2022-08-22T14:57:04.781Z,41.38
2022-08-22T14:59:50.310Z,42.75
2022-08-22T15:02:26.235Z,41.99
2022-08-22T15:04:56.568Z,41.58
2022-08-22T15:07:27.088Z,41.73
2022-08-22T15:10:01.127Z,40.97
2022-08-22T15:12:35.061Z,40.31
2022-08-22T15:15:06.688Z,40.15
2022-08-22T15:17:44.466Z,40.90
2022-08-22T15:20:27.833Z,39.76
2022-08-22T15:22:59.301Z,40.03
2022-08-22T15:25:33.411Z,39.41
2022-08-22T15:28:05.863Z,39.91
2022-08-22T15:30:37.598Z,40.24
2022-08-22T15:33:15.652Z,40.71
2022-08-22T15:35:45.360Z,40.31
2022-08-22T15:38:31.016Z,39.89
2022-08-22T15:41:32.212Z,39.46
2022-08-22T15:44:09.210Z,39.57
2022-08-22T15:46:45.928Z,39.50
2022-08-22T15:49:28.804Z,39.19
2022-08-22T15:52:11.138Z,39.45
2022-08-22T15:55:21.199Z,39.36
2022-08-22T15:58:00.274Z,39.78
2022-08-22T16:00:34.448Z,39.41
2022-08-22T16:03:06.779Z,39.85
2022-08-22T16:05:53.273Z,40.00
2022-08-22T16:08:32.693Z,39.83
2022-08-22T16:11:26.007Z,40.03
2022-08-22T16:14:24.227Z,40.74
2022-08-22T16:16:59.943Z,41.38
2022-08-22T16:19:29.580Z,40.38
2022-08-22T16:22:17.947Z,40.03
2022-08-22T16:25:10.719Z,39.46
2022-08-22T16:27:53.757Z,41.03
2022-08-22T16:30:37.206Z,41.10
2022-08-22T16:33:07.071Z,40.98
2022-08-22T16:36:22.267Z,40.92
2022-08-22T16:38:52.967Z,41.46
2022-08-22T16:41:34.230Z,40.83
2022-08-22T16:44:33.624Z,40.54
2022-08-22T16:47:12.756Z,40.13
2022-08-22T16:49:57.355Z,40.46
2022-08-22T16:53:01.737Z,42.12
2022-08-22T16:55:58.827Z,40.88
2022-08-22T16:59:14.133Z,40.57
2022-08-22T17:02:10.573Z,40.47
2022-08-22T17:04:51.655Z,41.57
2022-08-22T17:07:33.724Z,40.95
2022-08-22T17:10:23.502Z,41.54
2022-08-22T17:13:10.284Z,41.98
2022-08-22T17:15:53.907Z,42.28
2022-08-22T17:18:36.363Z,42.76
2022-08-22T17:21:11.727Z,43.58
2022-08-22T17:23:50.478Z,43.53
2022-08-22T17:26:35.852Z,44.07
2022-08-22T17:29:12.881Z,43.88
2022-08-22T17:31:49.366Z,44.46
2022-08-22T17:34:33.573Z,44.55
2022-08-22T17:37:09.964Z,44.16
2022-08-22T17:39:55.653Z,45.27
2022-08-22T17:42:44.664Z,45.50
2022-08-22T17:45:27.583Z,44.85
2022-08-22T17:48:02.281Z,45.78
2022-08-22T17:50:39.305Z,45.63
2022-08-22T17:53:16.309Z,45.77
2022-08-22T17:55:58.953Z,46.91
2022-08-22T17:58:35.717Z,45.57
2022-08-22T18:01:16.105Z,46.17
2022-08-22T18:03:50.977Z,46.18
2022-08-22T18:06:23.758Z,46.46
2022-08-22T18:11:51.116Z,47.40
2022-08-22T18:14:28.438Z,47.40
2022-08-22T18:16:59.050Z,47.55
2022-08-22T18:19:43.218Z,48.35
2022-08-22T18:22:20.658Z,49.09
2022-08-22T18:24:55.174Z,49.51
2022-08-22T18:27:32.594Z,49.98
2022-08-22T18:30:15.742Z,49.97
2022-08-22T18:32:52.303Z,50.37
2022-08-22T18:35:26.015Z,51.02
2022-08-22T18:38:03.415Z,51.43
2022-08-22T18:40:53.383Z,51.67
2022-08-22T18:43:26.980Z,51.93
2022-08-22T18:46:03.266Z,51.92
2022-08-22T18:48:54.468Z,52.37
2022-08-22T18:51:30.340Z,52.42
2022-08-22T18:54:20.690Z,52.68
2022-08-22T18:56:54.606Z,53.24
2022-08-22T18:59:42.315Z,53.38
2022-08-22T19:02:26.879Z,53.95
2022-08-22T19:05:28.517Z,54.01
2022-08-22T19:08:21.446Z,54.15
2022-08-22T19:11:06.070Z,54.48
2022-08-22T19:14:08.765Z,54.30
2022-08-22T19:17:04.494Z,54.68
2022-08-22T19:20:02.103Z,54.40
2022-08-22T19:22:34.117Z,54.92
2022-08-22T19:25:18.159Z,54.88
2022-08-22T19:27:48.589Z,54.77
2022-08-22T19:30:42.020Z,54.93
2022-08-22T19:33:11.451Z,55.22
2022-08-22T19:36:05.544Z,54.62
2022-08-22T19:38:57.490Z,54.52
2022-08-22T19:41:45.228Z,54.57
2022-08-22T19:44:34.480Z,54.58
2022-08-22T19:47:11.559Z,55.40
2022-08-22T19:49:41.972Z,54.78
2022-08-22T19:52:20.846Z,54.93
2022-08-22T19:55:01.633Z,54.82
2022-08-22T19:57:40.614Z,54.61
2022-08-22T20:00:12.530Z,54.78
2022-08-22T20:02:59.868Z,55.09
2022-08-22T20:05:37.534Z,55.21
2022-08-22T20:08:25.351Z,55.63
2022-08-22T20:11:03.252Z,55.91
2022-08-22T20:13:34.131Z,56.20
2022-08-22T20:16:10.615Z,56.06
2022-08-22T20:19:12.241Z,56.36
2022-08-22T20:21:46.875Z,57.09
2022-08-22T20:24:20.821Z,56.95
2022-08-22T20:27:12.124Z,56.18
2022-08-22T20:29:43.025Z,56.51
2022-08-22T20:32:13.795Z,56.08
2022-08-22T20:34:43.542Z,57.09
2022-08-22T20:37:45.020Z,57.01
2022-08-22T20:40:54.919Z,56.72
2022-08-22T20:43:11.930Z,56.38
2022-08-22T20:45:50.578Z,56.58
2022-08-22T20:48:18.309Z,56.28
2022-08-22T20:50:47.271Z,57.27
2022-08-22T20:53:20.324Z,57.74
2022-08-22T20:55:54.781Z,56.53
2022-08-22T20:58:28.316Z,58.11
2022-08-22T21:01:00.069Z,58.10
2022-08-22T21:03:37.471Z,58.24
2022-08-22T21:06:14.989Z,58.35
2022-08-22T21:08:44.779Z,57.74
2022-08-22T21:11:39.705Z,57.80
2022-08-22T21:14:19.827Z,58.60
2022-08-22T21:16:47.478Z,58.78
2022-08-22T21:19:19.117Z,58.58
2022-08-22T21:21:48.293Z,58.83
2022-08-22T21:24:16.210Z,58.89
2022-08-22T21:26:50.347Z,59.28
2022-08-22T21:29:26.660Z,59.21
2022-08-22T21:32:08.672Z,59.49
2022-08-22T21:34:41.855Z,59.94
2022-08-22T21:37:14.946Z,60.23
2022-08-22T21:39:46.974Z,60.32
2022-08-22T21:42:24.139Z,60.18
2022-08-22T21:44:57.706Z,60.87
2022-08-22T21:47:31.601Z,60.36
2022-08-22T21:50:15.662Z,60.37
2022-08-22T21:53:00.695Z,60.48
2022-08-22T21:55:30.334Z,59.71
2022-08-22T21:58:12.102Z,60.95
2022-08-22T22:00:51.958Z,61.33
2022-08-22T22:03:22.109Z,60.44
2022-08-22T22:05:50.741Z,60.92
2022-08-22T22:08:20.300Z,61.37
2022-08-22T22:10:49.608Z,61.31
2022-08-22T22:13:19.942Z,61.27
2022-08-22T22:15:53.791Z,60.79
2022-08-22T22:18:23.333Z,61.27
2022-08-22T22:20:53.259Z,61.03
2022-08-22T22:23:23.202Z,61.11
2022-08-22T22:25:52.167Z,61.38
2022-08-22T22:28:23.202Z,60.83
2022-08-22T22:30:53.314Z,60.60
2022-08-22T22:33:24.035Z,61.58
2022-08-22T22:35:52.559Z,61.74
2022-08-22T22:38:24.114Z,60.60
2022-08-22T22:40:53.979Z,60.88
2022-08-22T22:43:21.954Z,61.30
2022-08-22T22:45:49.881Z,61.59
2022-08-22T22:48:24.123Z,61.61
2022-08-22T22:50:52.613Z,61.76
2022-08-22T22:53:21.495Z,61.81
2022-08-22T22:56:09.162Z,60.86
2022-08-22T22:58:37.011Z,61.23
2022-08-22T23:01:08.486Z,61.14
2022-08-22T23:03:36.242Z,61.21
2022-08-22T23:06:03.845Z,61.22
2022-08-22T23:08:31.763Z,60.98
2022-08-22T23:10:59.529Z,61.54
2022-08-22T23:13:28.499Z,60.65
2022-08-22T23:15:56.296Z,60.67
2022-08-22T23:18:30.294Z,60.67
2022-08-22T23:20:58.196Z,61.16
2022-08-22T23:23:25.971Z,60.23
2022-08-22T23:25:53.525Z,60.45
2022-08-22T23:28:21.228Z,62.08
2022-08-22T23:30:50.136Z,61.14
2022-08-22T23:33:17.793Z,62.08
2022-08-22T23:35:45.361Z,61.29
2022-08-22T23:38:13.010Z,61.79
2022-08-22T23:40:40.570Z,61.46
2022-08-22T23:43:08.247Z,62.08
2022-08-22T23:45:35.821Z,61.53
2022-08-22T23:48:05.072Z,62.00
2022-08-22T23:50:32.630Z,62.05
2022-08-22T23:53:00.421Z,61.68
2022-08-22T23:55:27.999Z,61.64
2022-08-22T23:57:55.607Z,61.89
